Time;durP1;ratioP1;P1;durP2;ratioP2;P2;SDS_P1;SDS_P2;PMS_P1;PMS_P2;Temp;Humidity;BMP_temperature;BMP_pressure;BME280_temperature;BME280_humidity;BME280_pressure;Samples;Min_cycle;Max_cycle;Signal;HPM_P1;HPM_P2
2023/05/28 00:00:38;;;;;;;;;;;23.50;47.40;;;;;;1569797;74;690;-59
2023/05/28 00:02:40;;;;;;;;;;;23.40;47.20;;;;;;1575379;74;683;-60
2023/05/28 00:04:42;;;;;;;;;;;23.50;47.50;;;;;;1567795;74;634;-60
2023/05/28 00:06:44;;;;;;;;;;;23.40;47.40;;;;;;1570307;73;1145;-60
2023/05/28 00:08:46;;;;;;;;;;;23.50;47.60;;;;;;1586106;74;760;-60
2023/05/28 00:10:48;;;;;;;;;;;23.40;47.50;;;;;;1577480;74;1425;-60
2023/05/28 00:12:50;;;;;;;;;;;23.50;47.70;;;;;;1582348;74;1924;-60
2023/05/28 00:14:52;;;;;;;;;;;23.50;47.70;;;;;;1570293;74;774;-60
2023/05/28 00:16:54;;;;;;;;;;;23.50;47.70;;;;;;1566160;74;1130;-60
2023/05/28 00:18:55;;;;;;;;;;;23.40;47.60;;;;;;1555636;74;692;-60
2023/05/28 00:20:57;;;;;;;;;;;23.40;47.60;;;;;;1563907;74;695;-59
2023/05/28 00:23:00;;;;;;;;;;;23.40;47.60;;;;;;1567393;74;719;-59
2023/05/28 00:25:02;;;;;;;;;;;23.50;47.80;;;;;;1555209;74;1560;-59
2023/05/28 00:27:04;;;;;;;;;;;23.50;47.70;;;;;;1574192;74;1160;-59
2023/05/28 00:29:05;;;;;;;;;;;23.40;47.60;;;;;;1567095;74;779;-59
2023/05/28 00:31:07;;;;;;;;;;;23.40;47.60;;;;;;1575157;74;691;-59
2023/05/28 00:33:09;;;;;;;;;;;23.50;47.80;;;;;;1587067;73;1950;-58
2023/05/28 00:35:11;;;;;;;;;;;23.40;47.60;;;;;;1571072;74;758;-59
2023/05/28 00:37:13;;;;;;;;;;;23.40;47.60;;;;;;1585491;74;1163;-59
2023/05/28 00:39:18;;;;;;;;;;;23.50;47.70;;;;;;1590939;74;1036;-59
2023/05/28 00:41:22;;;;;;;;;;;23.40;47.50;;;;;;1576602;73;683;-59
2023/05/28 00:43:24;;;;;;;;;;;23.50;47.60;;;;;;1571419;73;695;-59
2023/05/28 00:45:26;;;;;;;;;;;23.50;47.50;;;;;;1575554;74;808;-59
2023/05/28 00:47:28;;;;;;;;;;;23.50;47.40;;;;;;1579398;74;1081;-59
2023/05/28 00:49:30;;;;;;;;;;;23.50;47.30;;;;;;1578007;73;742;-59
2023/05/28 00:51:32;;;;;;;;;;;23.50;47.30;;;;;;1572336;74;1442;-59
2023/05/28 00:53:33;;;;;;;;;;;23.50;47.20;;;;;;1578956;74;1928;-59
2023/05/28 00:55:35;;;;;;;;;;;23.50;47.20;;;;;;1571544;73;683;-59
2023/05/28 00:57:37;;;;;;;;;;;23.60;47.30;;;;;;1575629;73;1173;-60
2023/05/28 00:59:39;;;;;;;;;;;23.50;47.40;;;;;;1580234;73;772;-60
2023/05/28 01:01:41;;;;;;;;;;;23.50;47.50;;;;;;1574146;74;715;-60
2023/05/28 01:03:43;;;;;;;;;;;23.50;47.50;;;;;;1570876;73;704;-60
2023/05/28 01:05:45;;;;;;;;;;;23.50;47.50;;;;;;1543304;76;1455;-58
2023/05/28 01:07:47;;;;;;;;;;;23.50;47.50;;;;;;1541607;75;1127;-60
2023/05/28 01:09:49;;;;;;;;;;;23.50;47.60;;;;;;1540079;76;719;-59
2023/05/28 01:11:52;;;;;;;;;;;23.50;47.60;;;;;;1536367;76;676;-60
2023/05/28 01:13:54;;;;;;;;;;;23.50;47.60;;;;;;1536291;76;1926;-60
2023/05/28 01:15:56;;;;;;;;;;;23.50;47.60;;;;;;1533025;76;743;-60
2023/05/28 01:17:59;;;;;;;;;;;23.50;47.60;;;;;;1531413;76;1150;-60
2023/05/28 01:20:05;;;;;;;;;;;23.50;47.60;;;;;;1542926;76;1488;-60
2023/05/28 01:22:08;;;;;;;;;;;23.50;47.60;;;;;;1552680;76;715;-59
2023/05/28 01:24:11;;;;;;;;;;;23.50;47.50;;;;;;1537766;76;776;-60
2023/05/28 01:26:13;;;;;;;;;;;23.50;47.60;;;;;;1580113;74;708;-60
2023/05/28 01:28:15;;;;;;;;;;;23.40;47.50;;;;;;1585318;73;1124;-59
2023/05/28 01:30:17;;;;;;;;;;;23.40;47.50;;;;;;1583209;73;709;-59
2023/05/28 01:32:19;;;;;;;;;;;23.40;47.50;;;;;;1574350;73;1934;-59
2023/05/28 01:34:22;;;;;;;;;;;23.50;47.60;;;;;;1575534;73;1431;-59
2023/05/28 01:36:25;;;;;;;;;;;23.40;47.40;;;;;;1580723;73;658;-59
2023/05/28 01:38:27;;;;;;;;;;;23.40;47.40;;;;;;1574653;73;1124;-59
2023/05/28 01:40:29;;;;;;;;;;;23.50;47.50;;;;;;1572856;73;718;-59
2023/05/28 01:42:32;;;;;;;;;;;23.40;47.40;;;;;;1567252;73;668;-59
2023/05/28 01:44:33;;;;;;;;;;;23.50;47.60;;;;;;1571689;73;720;-59
2023/05/28 01:46:35;;;;;;;;;;;23.40;47.30;;;;;;1573140;73;1152;-59
2023/05/28 01:48:37;;;;;;;;;;;23.50;47.50;;;;;;1582182;73;1501;-59
2023/05/28 01:50:39;;;;;;;;;;;23.50;47.50;;;;;;1587354;73;734;-58
2023/05/28 01:52:41;;;;;;;;;;;23.50;47.50;;;;;;1582145;73;1907;-59
2023/05/28 01:54:43;;;;;;;;;;;23.50;47.50;;;;;;1590119;73;706;-58
2023/05/28 01:56:45;;;;;;;;;;;23.50;47.50;;;;;;1572496;73;1133;-59
2023/05/28 01:58:47;;;;;;;;;;;23.40;47.30;;;;;;1572972;73;792;-58
2023/05/28 02:00:50;;;;;;;;;;;23.50;47.40;;;;;;1569435;73;699;-58
2023/05/28 02:02:52;;;;;;;;;;;23.50;47.50;;;;;;1571191;73;1559;-58
2023/05/28 02:04:54;;;;;;;;;;;23.50;47.50;;;;;;1585591;73;720;-58
2023/05/28 02:06:56;;;;;;;;;;;23.50;47.50;;;;;;1585704;73;1175;-57
2023/05/28 02:08:58;;;;;;;;;;;23.40;47.40;;;;;;1573237;73;724;-59
2023/05/28 02:11:00;;;;;;;;;;;23.40;47.30;;;;;;1575149;73;797;-59
2023/05/28 02:13:03;;;;;;;;;;;23.50;47.50;;;;;;1570356;73;1938;-59
2023/05/28 02:15:05;;;;;;;;;;;23.40;47.40;;;;;;1573420;73;646;-61
2023/05/28 02:17:09;;;;;;;;;;;23.50;47.50;;;;;;1573926;73;1434;-59
2023/05/28 02:19:11;;;;;;;;;;;23.50;47.50;;;;;;1569079;73;744;-58
2023/05/28 02:21:13;;;;;;;;;;;23.50;47.50;;;;;;1537748;76;861;-59
2023/05/28 02:23:15;;;;;;;;;;;23.50;47.40;;;;;;1563457;75;733;-58
2023/05/28 02:25:17;;;;;;;;;;;23.40;47.30;;;;;;1554215;75;703;-58
2023/05/28 02:27:19;;;;;;;;;;;23.50;47.50;;;;;;1532531;76;1156;-58
2023/05/28 02:29:21;;;;;;;;;;;23.50;47.50;;;;;;1518763;76;686;-59
2023/05/28 02:31:23;;;;;;;;;;;23.50;47.40;;;;;;1518237;77;1471;-58
2023/05/28 02:33:25;;;;;;;;;;;23.50;47.40;;;;;;1521166;77;1929;-58
2023/05/28 02:35:27;;;;;;;;;;;23.50;47.50;;;;;;1519790;77;1115;-58
2023/05/28 02:37:29;;;;;;;;;;;23.50;47.40;;;;;;1517330;77;1184;-58
2023/05/28 02:39:31;;;;;;;;;;;23.50;47.40;;;;;;1516532;77;739;-58
2023/05/28 02:41:33;;;;;;;;;;;23.50;47.40;;;;;;1522226;77;727;-59
2023/05/28 02:43:35;;;;;;;;;;;23.50;47.40;;;;;;1527127;77;748;-59
2023/05/28 02:45:36;;;;;;;;;;;23.50;47.40;;;;;;1525297;76;1585;-60
2023/05/28 02:47:39;;;;;;;;;;;23.40;47.30;;;;;;1532363;77;1127;-60
2023/05/28 02:49:41;;;;;;;;;;;23.50;47.40;;;;;;1520043;77;737;-58
2023/05/28 02:51:42;;;;;;;;;;;23.50;47.50;;;;;;1521995;77;807;-58
2023/05/28 02:53:45;;;;;;;;;;;23.50;47.40;;;;;;1520455;77;1934;-58
2023/05/28 02:55:47;;;;;;;;;;;23.50;47.40;;;;;;1524713;76;660;-59
2023/05/28 02:57:49;;;;;;;;;;;23.50;47.40;;;;;;1534695;77;1082;-58
2023/05/28 02:59:50;;;;;;;;;;;23.40;47.30;;;;;;1519740;77;1568;-58
2023/05/28 03:01:52;;;;;;;;;;;23.50;47.40;;;;;;1525262;76;696;-58
2023/05/28 03:03:54;;;;;;;;;;;23.40;47.30;;;;;;1579624;73;734;-59
2023/05/28 03:05:57;;;;;;;;;;;23.50;47.40;;;;;;1571202;73;776;-58
2023/05/28 03:09:22;;;;;;;;;;;23.40;47.40;;;;;;1615903;72;658;-58
2023/05/28 03:11:24;;;;;;;;;;;23.50;47.50;;;;;;1580414;73;739;-58
2023/05/28 03:13:26;;;;;;;;;;;23.50;47.50;;;;;;1569716;73;1439;-58
2023/05/28 03:15:28;;;;;;;;;;;23.50;47.50;;;;;;1587225;73;747;-58
2023/05/28 03:17:30;;;;;;;;;;;23.50;47.50;;;;;;1561216;73;1214;-59
2023/05/28 03:19:32;;;;;;;;;;;23.50;47.60;;;;;;1561780;74;712;-58
2023/05/28 03:21:35;;;;;;;;;;;23.50;47.60;;;;;;1558094;74;780;-59
2023/05/28 03:23:37;;;;;;;;;;;23.40;47.50;;;;;;1560767;74;679;-58
2023/05/28 03:25:38;;;;;;;;;;;23.40;47.50;;;;;;1548802;75;772;-58
2023/05/28 03:27:40;;;;;;;;;;;23.50;47.60;;;;;;1572041;75;1942;-59
2023/05/28 03:29:42;;;;;;;;;;;23.50;47.60;;;;;;1549061;75;806;-58
2023/05/28 03:31:45;;;;;;;;;;;23.50;47.60;;;;;;1549510;75;702;-58
2023/05/28 03:33:47;;;;;;;;;;;23.40;47.50;;;;;;1557195;75;757;-58
2023/05/28 03:35:49;;;;;;;;;;;23.40;47.50;;;;;;1557683;75;801;-58
2023/05/28 03:37:50;;;;;;;;;;;23.40;47.50;;;;;;1558062;74;1136;-58
2023/05/28 03:39:53;;;;;;;;;;;23.40;47.50;;;;;;1563734;74;686;-58
2023/05/28 03:41:55;;;;;;;;;;;23.50;47.60;;;;;;1561276;75;1436;-58
2023/05/28 03:43:57;;;;;;;;;;;23.50;47.60;;;;;;1551566;75;778;-57
2023/05/28 03:45:58;;;;;;;;;;;23.40;47.50;;;;;;1562845;75;728;-58
2023/05/28 03:48:02;;;;;;;;;;;23.40;47.50;;;;;;1562236;74;1938;-58
2023/05/28 03:50:04;;;;;;;;;;;23.40;47.50;;;;;;1560174;75;728;-58
2023/05/28 03:52:07;;;;;;;;;;;23.40;47.50;;;;;;1559090;74;705;-58
2023/05/28 03:54:09;;;;;;;;;;;23.40;47.50;;;;;;1550628;75;1455;-58
2023/05/28 03:56:11;;;;;;;;;;;23.40;47.60;;;;;;1573124;75;796;-58
2023/05/28 03:58:14;;;;;;;;;;;23.40;47.60;;;;;;1568179;74;1117;-57
2023/05/28 04:00:16;;;;;;;;;;;23.40;47.60;;;;;;1561231;75;704;-58
2023/05/28 04:02:18;;;;;;;;;;;23.40;47.60;;;;;;1561739;75;788;-58
2023/05/28 04:04:20;;;;;;;;;;;23.40;47.60;;;;;;1554394;75;742;-59
2023/05/28 04:06:22;;;;;;;;;;;23.40;47.60;;;;;;1563444;74;699;-59
2023/05/28 04:08:24;;;;;;;;;;;23.40;47.70;;;;;;1559118;74;1931;-58
2023/05/28 04:10:26;;;;;;;;;;;23.10;47.60;;;;;;1547789;75;780;-59
2023/05/28 04:12:28;;;;;;;;;;;23.30;47.70;;;;;;1549978;75;634;-59
2023/05/28 04:14:30;;;;;;;;;;;23.40;47.80;;;;;;1557245;75;736;-58
2023/05/28 04:16:32;;;;;;;;;;;23.30;47.80;;;;;;1548480;75;793;-58
2023/05/28 04:18:34;;;;;;;;;;;23.30;47.90;;;;;;1540766;75;1191;-58
2023/05/28 04:20:38;;;;;;;;;;;23.30;47.80;;;;;;1530948;75;852;-58
2023/05/28 04:22:40;;;;;;;;;;;23.30;47.80;;;;;;1510352;77;1537;-59
2023/05/28 04:24:42;;;;;;;;;;;23.30;47.80;;;;;;1546766;75;634;-59
2023/05/28 04:26:44;;;;;;;;;;;23.30;47.80;;;;;;1561681;75;1130;-58
2023/05/28 04:28:48;;;;;;;;;;;23.30;47.80;;;;;;1553134;75;1919;-58
2023/05/28 04:30:50;;;;;;;;;;;23.30;47.90;;;;;;1573944;75;775;-59
2023/05/28 04:32:52;;;;;;;;;;;23.30;47.80;;;;;;1564929;75;681;-60
2023/05/28 04:34:54;;;;;;;;;;;23.30;47.90;;;;;;1558763;75;714;-58
2023/05/28 04:36:56;;;;;;;;;;;23.30;47.80;;;;;;1548008;75;1260;-60
2023/05/28 04:39:00;;;;;;;;;;;23.30;47.80;;;;;;1480880;79;786;-58
2023/05/28 04:41:04;;;;;;;;;;;23.30;47.80;;;;;;1498073;77;1946;-58
2023/05/28 04:43:06;;;;;;;;;;;23.30;47.90;;;;;;1513633;77;1620;-57
2023/05/28 04:45:09;;;;;;;;;;;23.30;47.80;;;;;;1557450;75;749;-58
2023/05/28 04:47:11;;;;;;;;;;;23.30;47.80;;;;;;1552280;75;1108;-59
2023/05/28 04:49:13;;;;;;;;;;;23.30;47.80;;;;;;1556555;75;1919;-58
2023/05/28 04:51:15;;;;;;;;;;;23.30;47.80;;;;;;1554983;75;1607;-58
2023/05/28 04:53:17;;;;;;;;;;;23.30;47.80;;;;;;1562277;75;727;-60
2023/05/28 04:55:19;;;;;;;;;;;23.40;47.80;;;;;;1550966;75;846;-58
2023/05/28 04:57:21;;;;;;;;;;;23.30;47.80;;;;;;1547615;75;1099;-58
2023/05/28 04:59:23;;;;;;;;;;;23.30;47.80;;;;;;1549431;75;673;-58
2023/05/28 05:01:24;;;;;;;;;;;23.30;47.80;;;;;;1553201;75;661;-58
2023/05/28 05:03:27;;;;;;;;;;;23.30;47.80;;;;;;1535793;75;736;-59
2023/05/28 05:05:29;;;;;;;;;;;23.30;47.80;;;;;;1550213;75;1412;-58
2023/05/28 05:07:32;;;;;;;;;;;23.30;47.80;;;;;;1563211;75;1177;-60
2023/05/28 05:09:34;;;;;;;;;;;23.30;47.70;;;;;;1552949;75;1918;-59
2023/05/28 05:11:35;;;;;;;;;;;23.30;47.70;;;;;;1550497;74;750;-58
2023/05/28 05:13:37;;;;;;;;;;;23.40;47.60;;;;;;1570704;75;769;-59
2023/05/28 05:15:39;;;;;;;;;;;23.30;47.60;;;;;;1555099;75;783;-60
2023/05/28 05:17:41;;;;;;;;;;;23.40;47.60;;;;;;1559410;75;1174;-59
2023/05/28 05:19:43;;;;;;;;;;;23.40;47.60;;;;;;1552771;74;1498;-60
2023/05/28 05:21:45;;;;;;;;;;;23.40;47.60;;;;;;1572941;75;703;-60
2023/05/28 05:23:47;;;;;;;;;;;23.40;47.60;;;;;;1571840;75;707;-58
2023/05/28 05:25:48;;;;;;;;;;;23.40;47.60;;;;;;1557181;74;775;-58
2023/05/28 05:27:50;;;;;;;;;;;23.30;47.70;;;;;;1574185;75;1125;-57
2023/05/28 05:29:53;;;;;;;;;;;23.30;47.80;;;;;;1570857;75;1945;-58
2023/05/28 05:31:55;;;;;;;;;;;23.30;47.90;;;;;;1553281;75;690;-58
2023/05/28 05:33:56;;;;;;;;;;;23.30;48.00;;;;;;1558257;75;1646;-58
2023/05/28 05:35:58;;;;;;;;;;;23.30;47.80;;;;;;1566902;75;731;-58
2023/05/28 05:38:00;;;;;;;;;;;23.40;47.70;;;;;;1548703;75;1136;-59
2023/05/28 05:40:05;;;;;;;;;;;23.40;47.70;;;;;;1548883;75;707;-59
2023/05/28 05:42:06;;;;;;;;;;;23.40;47.80;;;;;;1546545;75;1621;-59
2023/05/28 05:44:08;;;;;;;;;;;23.30;48.00;;;;;;1571365;74;962;-58
2023/05/28 05:46:10;;;;;;;;;;;23.30;47.90;;;;;;1564770;75;762;-57
2023/05/28 05:48:11;;;;;;;;;;;23.30;48.10;;;;;;1573414;74;1486;-59
2023/05/28 05:50:13;;;;;;;;;;;23.40;48.10;;;;;;1555761;74;1935;-59
2023/05/28 05:52:15;;;;;;;;;;;23.30;48.00;;;;;;1553524;75;765;-59
2023/05/28 05:54:18;;;;;;;;;;;23.40;47.80;;;;;;1562902;75;785;-59
2023/05/28 05:56:20;;;;;;;;;;;23.40;47.70;;;;;;1561659;75;732;-59
2023/05/28 05:58:21;;;;;;;;;;;23.30;47.70;;;;;;1564512;74;1116;-59
2023/05/28 06:00:23;;;;;;;;;;;23.30;47.60;;;;;;1565245;75;703;-59
2023/05/28 06:02:25;;;;;;;;;;;23.40;47.60;;;;;;1561889;74;1573;-61
2023/05/28 06:04:31;;;;;;;;;;;23.40;47.60;;;;;;1568154;75;829;-59
2023/05/28 06:06:31;;;;;;;;;;;23.30;47.60;;;;;;1556434;75;1623;-59
2023/05/28 06:08:33;;;;;;;;;;;23.30;47.60;;;;;;1562074;75;1954;-59
2023/05/28 06:10:35;;;;;;;;;;;23.30;47.70;;;;;;1557083;74;1102;-59
2023/05/28 06:12:38;;;;;;;;;;;23.30;47.60;;;;;;1562632;74;730;-59
2023/05/28 06:14:40;;;;;;;;;;;23.30;47.60;;;;;;1551693;74;768;-59
2023/05/28 06:16:42;;;;;;;;;;;23.30;47.60;;;;;;1553922;75;1595;-59
2023/05/28 06:18:44;;;;;;;;;;;23.30;47.60;;;;;;1561227;75;657;-59
2023/05/28 06:20:46;;;;;;;;;;;23.30;47.60;;;;;;1562747;74;722;-59
2023/05/28 06:22:48;;;;;;;;;;;23.20;47.40;;;;;;1560941;75;638;-59
2023/05/28 06:24:52;;;;;;;;;;;23.20;47.40;;;;;;1559997;75;708;-59
2023/05/28 06:26:54;;;;;;;;;;;23.30;47.50;;;;;;1562343;74;1125;-59
2023/05/28 06:28:56;;;;;;;;;;;23.20;47.30;;;;;;1560403;75;1930;-59
2023/05/28 06:30:58;;;;;;;;;;;23.20;47.30;;;;;;1554446;75;754;-59
2023/05/28 06:33:00;;;;;;;;;;;23.30;47.30;;;;;;1551422;75;720;-59
2023/05/28 06:35:02;;;;;;;;;;;23.30;47.20;;;;;;1554837;75;737;-59
2023/05/28 06:37:04;;;;;;;;;;;23.20;47.10;;;;;;1548719;75;1086;-59
2023/05/28 06:39:07;;;;;;;;;;;23.30;47.10;;;;;;1566847;74;741;-59
2023/05/28 06:41:09;;;;;;;;;;;23.30;47.00;;;;;;1564192;74;951;-59
2023/05/28 06:43:11;;;;;;;;;;;23.30;47.00;;;;;;1565747;75;1465;-59
2023/05/28 06:45:13;;;;;;;;;;;23.20;46.90;;;;;;1562879;75;741;-59
2023/05/28 06:47:15;;;;;;;;;;;23.30;47.00;;;;;;1574776;75;1103;-59
2023/05/28 06:49:17;;;;;;;;;;;23.20;46.90;;;;;;1559861;75;1935;-58
2023/05/28 06:51:19;;;;;;;;;;;23.20;46.90;;;;;;1567297;74;723;-59
2023/05/28 06:53:21;;;;;;;;;;;23.20;46.90;;;;;;1565399;74;738;-59
2023/05/28 06:55:23;;;;;;;;;;;23.20;46.80;;;;;;1560595;74;711;-59
2023/05/28 06:57:25;;;;;;;;;;;23.20;46.80;;;;;;1566791;74;1328;-59
2023/05/28 06:59:27;;;;;;;;;;;23.20;46.80;;;;;;1570379;74;707;-59
2023/05/28 07:01:28;;;;;;;;;;;23.30;46.80;;;;;;1564617;74;648;-59
2023/05/28 07:03:30;;;;;;;;;;;23.30;46.70;;;;;;1559435;74;680;-58
2023/05/28 07:05:32;;;;;;;;;;;23.30;46.70;;;;;;1550969;75;778;-59
2023/05/28 07:07:34;;;;;;;;;;;23.20;46.50;;;;;;1554000;75;1152;-59
2023/05/28 07:09:36;;;;;;;;;;;23.30;46.50;;;;;;1562625;74;1914;-59
2023/05/28 07:11:38;;;;;;;;;;;23.20;46.50;;;;;;1570721;74;1292;-59
2023/05/28 07:13:40;;;;;;;;;;;23.20;46.50;;;;;;1570574;74;733;-58
2023/05/28 07:15:42;;;;;;;;;;;23.30;46.50;;;;;;1572887;75;702;-59
2023/05/28 07:17:43;;;;;;;;;;;23.20;46.40;;;;;;1558490;74;1175;-59
2023/05/28 07:19:45;;;;;;;;;;;23.20;46.30;;;;;;1567766;74;736;-58
2023/05/28 07:21:47;;;;;;;;;;;23.30;46.30;;;;;;1573199;74;788;-59
2023/05/28 07:23:49;;;;;;;;;;;23.30;46.30;;;;;;1574922;75;716;-58
2023/05/28 07:25:51;;;;;;;;;;;23.30;46.30;;;;;;1556913;74;1436;-59
2023/05/28 07:27:53;;;;;;;;;;;23.30;46.20;;;;;;1568115;75;1093;-59
2023/05/28 07:29:55;;;;;;;;;;;23.30;46.00;;;;;;1560901;74;1946;-57
2023/05/28 07:31:57;;;;;;;;;;;23.30;46.00;;;;;;1565737;75;682;-58
2023/05/28 07:33:59;;;;;;;;;;;23.40;46.00;;;;;;1563027;74;744;-59
2023/05/28 07:36:01;;;;;;;;;;;23.40;45.90;;;;;;1566503;74;716;-58
2023/05/28 07:38:03;;;;;;;;;;;23.40;46.00;;;;;;1572949;74;1135;-58
2023/05/28 07:40:05;;;;;;;;;;;23.40;46.00;;;;;;1568002;74;1467;-58
2023/05/28 07:42:07;;;;;;;;;;;23.40;45.00;;;;;;1574259;74;754;-59
2023/05/28 07:44:09;;;;;;;;;;;23.30;44.80;;;;;;1562615;74;721;-58
2023/05/28 07:46:11;;;;;;;;;;;23.30;43.90;;;;;;1566620;74;741;-60
2023/05/28 07:48:13;;;;;;;;;;;23.20;42.40;;;;;;1565822;74;1126;-59
2023/05/28 07:50:14;;;;;;;;;;;23.20;42.30;;;;;;1569348;75;1927;-60
2023/05/28 07:52:16;;;;;;;;;;;23.20;41.30;;;;;;1562869;74;727;-56
2023/05/28 07:54:18;;;;;;;;;;;23.10;42.10;;;;;;1569378;74;1448;-57
2023/05/28 07:56:21;;;;;;;;;;;23.10;42.40;;;;;;1573254;74;727;-60
2023/05/28 07:58:30;;;;;;;;;;;23.10;42.30;;;;;;1590759;72;1127;-58
2023/05/28 08:00:31;;;;;;;;;;;23.10;40.50;;;;;;1573974;74;779;-59
2023/05/28 08:02:33;;;;;;;;;;;23.10;40.00;;;;;;1579485;74;786;-58
2023/05/28 08:04:35;;;;;;;;;;;23.10;40.60;;;;;;1581257;74;678;-59
2023/05/28 08:06:37;;;;;;;;;;;23.20;42.00;;;;;;1586385;74;1150;-59
2023/05/28 08:08:41;;;;;;;;;;;23.20;39.60;;;;;;1588449;74;1436;-59
2023/05/28 08:10:42;;;;;;;;;;;23.20;40.70;;;;;;1578058;74;803;-59
2023/05/28 08:12:45;;;;;;;;;;;23.20;40.60;;;;;;1585992;74;776;-58
2023/05/28 08:14:47;;;;;;;;;;;23.10;38.20;;;;;;1582641;74;626;-58
2023/05/28 08:16:48;;;;;;;;;;;23.10;38.50;;;;;;1583027;74;1959;-58
2023/05/28 08:18:50;;;;;;;;;;;23.00;36.70;;;;;;1570908;74;683;-58
2023/05/28 08:20:52;;;;;;;;;;;22.90;39.90;;;;;;1588516;74;755;-57
2023/05/28 08:22:54;;;;;;;;;;;22.90;38.40;;;;;;1575710;74;1545;-59
2023/05/28 08:24:56;;;;;;;;;;;23.00;38.50;;;;;;1589822;74;782;-57
2023/05/28 08:26:58;;;;;;;;;;;22.90;38.40;;;;;;1591778;74;1148;-58
2023/05/28 08:29:00;;;;;;;;;;;23.00;40.20;;;;;;1582474;74;738;-58
2023/05/28 08:31:02;;;;;;;;;;;23.00;39.00;;;;;;1568572;74;723;-59
2023/05/28 08:33:04;;;;;;;;;;;23.00;36.90;;;;;;1568223;74;658;-60
2023/05/28 08:35:06;;;;;;;;;;;23.00;37.50;;;;;;1582962;74;737;-58
2023/05/28 08:37:08;;;;;;;;;;;23.00;35.40;;;;;;1584672;73;1945;-60
2023/05/28 08:39:11;;;;;;;;;;;22.90;37.50;;;;;;1571518;74;677;-58
2023/05/28 08:41:13;;;;;;;;;;;23.00;38.50;;;;;;1579063;74;754;-58
2023/05/28 08:43:14;;;;;;;;;;;23.00;37.30;;;;;;1578242;74;675;-58
2023/05/28 08:45:16;;;;;;;;;;;23.10;39.50;;;;;;1546200;76;649;-59
2023/05/28 08:47:18;;;;;;;;;;;23.10;37.40;;;;;;1583847;74;1140;-58
2023/05/28 08:49:20;;;;;;;;;;;23.00;35.70;;;;;;1579204;74;723;-59
2023/05/28 08:51:22;;;;;;;;;;;23.00;36.80;;;;;;1584663;73;1601;-58
2023/05/28 08:53:29;;;;;;;;;;;23.10;37.90;;;;;;1577943;73;711;-58
2023/05/28 08:55:27;;;;;;;;;;;23.10;38.20;;;;;;1579830;74;1544;-60
2023/05/28 08:57:30;;;;;;;;;;;23.10;36.60;;;;;;1579846;74;1961;-59
2023/05/28 08:59:32;;;;;;;;;;;23.10;37.30;;;;;;1570005;75;699;-59
2023/05/28 09:01:34;;;;;;;;;;;23.10;36.00;;;;;;1575515;75;646;-59
2023/05/28 09:03:37;;;;;;;;;;;23.10;36.60;;;;;;1577107;74;1417;-59
2023/05/28 09:05:39;;;;;;;;;;;23.10;37.40;;;;;;1570732;75;727;-59
2023/05/28 09:07:41;;;;;;;;;;;23.10;35.40;;;;;;1580180;75;1148;-59
2023/05/28 09:09:43;;;;;;;;;;;23.10;36.90;;;;;;1576776;74;745;-59
2023/05/28 09:11:45;;;;;;;;;;;23.10;37.30;;;;;;1569159;75;732;-59
2023/05/28 09:13:48;;;;;;;;;;;23.10;37.20;;;;;;1577333;75;710;-59
2023/05/28 09:15:53;;;;;;;;;;;23.20;37.50;;;;;;1569432;75;682;-59
2023/05/28 09:17:55;;;;;;;;;;;23.20;36.50;;;;;;1566141;75;1949;-58
2023/05/28 09:19:59;;;;;;;;;;;23.20;35.90;;;;;;1563111;75;674;-59
2023/05/28 09:22:01;;;;;;;;;;;23.10;36.00;;;;;;1546200;75;1431;-60
2023/05/28 09:24:03;;;;;;;;;;;23.10;34.40;;;;;;1562151;75;700;-59
2023/05/28 09:26:08;;;;;;;;;;;23.10;34.80;;;;;;1570012;75;731;-58
2023/05/28 09:28:16;;;;;;;;;;;23.10;34.80;;;;;;1565890;75;1141;-59
2023/05/28 09:30:18;;;;;;;;;;;23.00;34.60;;;;;;1549193;74;736;-59
2023/05/28 09:32:20;;;;;;;;;;;23.00;34.60;;;;;;1575370;74;1472;-59
2023/05/28 09:34:24;;;;;;;;;;;23.10;35.40;;;;;;1560757;74;727;-59
2023/05/28 09:36:26;;;;;;;;;;;23.10;34.50;;;;;;1570627;75;1760;-59
2023/05/28 09:38:28;;;;;;;;;;;23.10;35.40;;;;;;1574131;74;1949;-59
2023/05/28 09:40:29;;;;;;;;;;;23.00;35.30;;;;;;1552281;76;736;-59
2023/05/28 09:42:45;;;;;;;;;;;23.10;35.20;;;;;;1562694;75;700;-59
2023/05/28 09:44:44;;;;;;;;;;;23.00;36.00;;;;;;1566886;74;1537;-59
2023/05/28 09:46:47;;;;;;;;;;;23.10;35.80;;;;;;1578740;75;1522;-58
2023/05/28 09:48:49;;;;;;;;;;;23.10;35.50;;;;;;1579947;75;815;-59
2023/05/28 09:50:51;;;;;;;;;;;23.10;34.30;;;;;;1581156;74;732;-59
2023/05/28 09:52:54;;;;;;;;;;;23.00;35.50;;;;;;1563306;74;653;-59
2023/05/28 09:54:58;;;;;;;;;;;23.00;34.70;;;;;;1576777;74;1133;-58
2023/05/28 09:57:02;;;;;;;;;;;23.10;34.40;;;;;;1558431;75;1147;-59
2023/05/28 09:59:03;;;;;;;;;;;23.10;35.40;;;;;;1574893;74;1965;-59
2023/05/28 10:01:07;;;;;;;;;;;23.00;35.00;;;;;;1587239;74;1588;-59
2023/05/28 10:03:16;;;;;;;;;;;23.10;35.70;;;;;;1583844;73;759;-59
2023/05/28 10:05:18;;;;;;;;;;;23.10;35.00;;;;;;1569591;74;726;-59
2023/05/28 10:07:21;;;;;;;;;;;23.10;34.60;;;;;;1541306;75;1187;-58
2023/05/28 10:09:22;;;;;;;;;;;23.00;33.90;;;;;;1587796;74;731;-58
2023/05/28 10:11:26;;;;;;;;;;;23.00;34.60;;;;;;1574627;74;786;-58
2023/05/28 10:13:28;;;;;;;;;;;23.00;35.00;;;;;;1586028;74;1745;-58
2023/05/28 10:15:30;;;;;;;;;;;23.00;35.30;;;;;;1573747;74;1629;-59
2023/05/28 10:17:32;;;;;;;;;;;23.00;34.30;;;;;;1579238;74;1941;-59
2023/05/28 10:19:35;;;;;;;;;;;23.00;34.20;;;;;;1576797;74;679;-59
2023/05/28 10:21:37;;;;;;;;;;;23.00;35.20;;;;;;1566717;74;748;-59
2023/05/28 10:23:39;;;;;;;;;;;23.00;35.30;;;;;;1571299;74;684;-59
2023/05/28 10:25:41;;;;;;;;;;;23.00;35.90;;;;;;1577975;74;731;-59
2023/05/28 10:27:48;;;;;;;;;;;23.00;34.90;;;;;;1566608;74;1460;-59
2023/05/28 10:29:49;;;;;;;;;;;23.00;34.90;;;;;;1571169;74;1581;-59
2023/05/28 10:32:03;;;;;;;;;;;23.00;33.40;;;;;;1567120;73;713;-59
2023/05/28 10:34:06;;;;;;;;;;;23.00;35.10;;;;;;1576318;74;755;-59
2023/05/28 10:36:11;;;;;;;;;;;22.90;34.70;;;;;;1555739;74;1197;-59
2023/05/28 10:38:13;;;;;;;;;;;22.90;36.00;;;;;;1590250;74;1909;-58
2023/05/28 10:40:24;;;;;;;;;;;22.90;35.70;;;;;;1576930;74;662;-58
2023/05/28 10:42:26;;;;;;;;;;;23.00;34.50;;;;;;1587843;74;1537;-58
2023/05/28 10:44:28;;;;;;;;;;;23.00;34.80;;;;;;1587930;74;765;-59
2023/05/28 10:46:36;;;;;;;;;;;23.00;35.30;;;;;;1535956;76;1156;-58
2023/05/28 10:48:39;;;;;;;;;;;22.90;35.50;;;;;;1576238;74;717;-58
2023/05/28 10:51:00;;;;;;;;;;;22.90;36.30;;;;;;1560350;74;683;-58
2023/05/28 10:53:08;;;;;;;;;;;22.90;34.60;;;;;;1567925;74;869;-59
2023/05/28 10:55:16;;;;;;;;;;;22.90;35.10;;;;;;1586284;74;799;-59
2023/05/28 10:57:16;;;;;;;;;;;22.90;34.00;;;;;;1576248;74;1497;-59
2023/05/28 10:59:17;;;;;;;;;;;22.90;34.70;;;;;;1582440;73;1925;-58
2023/05/28 11:01:22;;;;;;;;;;;22.90;34.30;;;;;;1586304;74;691;-58
2023/05/28 11:03:43;;;;;;;;;;;22.80;33.60;;;;;;1575949;74;651;-58
2023/05/28 11:05:45;;;;;;;;;;;22.90;33.90;;;;;;1581837;74;800;-60
2023/05/28 11:07:47;;;;;;;;;;;22.90;35.00;;;;;;1565227;74;1143;-59
2023/05/28 11:09:50;;;;;;;;;;;22.90;34.40;;;;;;1576247;74;684;-59
2023/05/28 11:11:52;;;;;;;;;;;22.90;34.00;;;;;;1578518;74;1413;-58
2023/05/28 11:13:54;;;;;;;;;;;22.90;34.40;;;;;;1576678;74;731;-59
2023/05/28 11:15:58;;;;;;;;;;;22.80;34.20;;;;;;1570770;74;767;-59
2023/05/28 11:18:00;;;;;;;;;;;22.90;34.20;;;;;;1572091;74;1923;-59
2023/05/28 11:20:02;;;;;;;;;;;22.90;34.90;;;;;;1584266;74;1068;-59
2023/05/28 11:22:04;;;;;;;;;;;22.90;35.40;;;;;;1580858;74;797;-59
2023/05/28 11:24:06;;;;;;;;;;;22.90;35.50;;;;;;1585819;74;735;-59
2023/05/28 11:26:13;;;;;;;;;;;23.00;35.50;;;;;;1581662;74;1615;-59
2023/05/28 11:28:12;;;;;;;;;;;22.90;35.40;;;;;;1569441;74;1704;-59
2023/05/28 11:30:16;;;;;;;;;;;22.90;35.40;;;;;;1587989;74;717;-59
2023/05/28 11:32:23;;;;;;;;;;;22.90;35.30;;;;;;1581846;74;730;-58
2023/05/28 11:34:25;;;;;;;;;;;22.90;35.50;;;;;;1578991;74;728;-60
2023/05/28 11:36:27;;;;;;;;;;;22.90;35.10;;;;;;1582159;74;773;-59
2023/05/28 11:38:29;;;;;;;;;;;22.90;34.70;;;;;;1578152;74;1933;-59
2023/05/28 11:40:34;;;;;;;;;;;22.80;35.60;;;;;;1583061;74;699;-58
2023/05/28 11:42:38;;;;;;;;;;;22.80;36.20;;;;;;1580072;74;696;-59
2023/05/28 11:44:42;;;;;;;;;;;22.80;36.00;;;;;;1583068;74;1077;-59
2023/05/28 11:46:44;;;;;;;;;;;22.90;34.90;;;;;;1579914;74;1573;-59
2023/05/28 11:48:46;;;;;;;;;;;22.90;36.10;;;;;;1579318;74;707;-59
2023/05/28 11:50:47;;;;;;;;;;;22.90;34.70;;;;;;1573323;74;772;-58
2023/05/28 11:52:49;;;;;;;;;;;22.80;35.60;;;;;;1576786;74;1425;-58
2023/05/28 11:54:55;;;;;;;;;;;22.80;35.50;;;;;;1574743;74;715;-59
2023/05/28 11:56:57;;;;;;;;;;;22.80;35.00;;;;;;1542978;76;1145;-59
2023/05/28 11:58:59;;;;;;;;;;;22.80;34.10;;;;;;1583335;74;1925;-59
2023/05/28 12:01:01;;;;;;;;;;;22.80;34.80;;;;;;1581947;74;701;-59
2023/05/28 12:03:03;;;;;;;;;;;22.80;34.40;;;;;;1594329;73;711;-59
2023/05/28 12:05:05;;;;;;;;;;;22.80;34.70;;;;;;1593702;74;809;-58
2023/05/28 12:07:07;;;;;;;;;;;22.70;35.60;;;;;;1589981;74;1474;-59
2023/05/28 12:09:09;;;;;;;;;;;22.80;33.80;;;;;;1584640;74;743;-59
2023/05/28 12:11:11;;;;;;;;;;;22.70;35.70;;;;;;1587830;73;681;-58